Time;durP1;ratioP1;P1;durP2;ratioP2;P2;SDS_P1;SDS_P2;PMS_P1;PMS_P2;Temp;Humidity;BMP_temperature;BMP_pressure;BME280_temperature;BME280_humidity;BME280_pressure;Samples;Min_cycle;Max_cycle;Signal;HPM_P1;HPM_P2
2022/08/24 00:02:02;;;;;;;;;;;;;;;;;;4864629;29;20006;-87
2022/08/24 00:04:27;;;;;;;;;;;;;;;;;;4881405;29;19920;-86
2022/08/24 00:06:53;;;;;;;;;;;;;;;;;;4881246;29;19931;-87
2022/08/24 00:09:18;;;;;;;;;;;;;;;;;;4881377;29;20379;-88
2022/08/24 00:11:44;;;;;;;;;;;;;;;;;;4881105;29;19927;-88
2022/08/24 00:14:10;;;;;;;;;;;;;;;;;;4864511;29;19920;-89
2022/08/24 00:16:36;;;;;;;;;;;;;;;;;;4864530;29;19971;-88
2022/08/24 00:19:02;;;;;;;;;;;;;;;;;;4863713;29;20006;-87
2022/08/24 00:21:27;;;;;;;;;;;;;;;;;;4881094;29;19943;-87
2022/08/24 00:23:53;;;;;;;;;;;;;;;;;;4881021;29;19946;-88
2022/08/24 00:26:18;;;;;;;;;;;;;;;;;;4881119;29;20360;-86
2022/08/24 00:28:44;;;;;;;;;;;;;;;;;;4864364;29;19967;-87
2022/08/24 00:31:10;;;;;;;;;;;;;;;;;;4864344;29;19926;-87
2022/08/24 00:33:36;;;;;;;;;;;;;;;;;;4864143;29;19920;-86
2022/08/24 00:36:03;;;;;;;;;;;;;;;;;;4880876;29;19980;-87
2022/08/24 00:38:28;;;;;;;;;;;;;;;;;;4863987;29;19920;-87
2022/08/24 00:40:53;;;;;;;;;;;;;;;;;;4864155;29;19923;-88
2022/08/24 00:43:21;;;;;;;;;;;;;;;;;;4880748;29;20345;-87
2022/08/24 00:45:49;;;;;;;;;;;;;;;;;;4863986;29;19923;-87
2022/08/24 00:48:16;;;;;;;;;;;;;;;;;;4880775;29;20336;-87
2022/08/24 00:50:43;;;;;;;;;;;;;;;;;;4880617;29;19943;-87
2022/08/24 00:53:12;;;;;;;;;;;;;;;;;;4880473;29;19920;-87
2022/08/24 00:55:48;;;;;;;;;;;;;;;;;;4863937;29;19966;-88
2022/08/24 00:58:20;;;;;;;;;;;;;;;;;;4863823;29;20360;-87
2022/08/24 01:00:48;;;;;;;;;;;;;;;;;;4863705;29;19959;-87
2022/08/24 01:03:15;;;;;;;;;;;;;;;;;;4880508;29;19924;-88
2022/08/24 01:05:43;;;;;;;;;;;;;;;;;;4863721;29;19962;-86
2022/08/24 01:08:09;;;;;;;;;;;;;;;;;;4880384;29;19924;-87
2022/08/24 01:10:37;;;;;;;;;;;;;;;;;;4880524;29;20014;-87
2022/08/24 01:13:04;;;;;;;;;;;;;;;;;;4880294;29;19992;-87
2022/08/24 01:15:31;;;;;;;;;;;;;;;;;;4880288;29;19920;-87
2022/08/24 01:20:43;;;;;;;;;;;;;;;;;;4880706;29;20299;-87
2022/08/24 01:23:24;;;;;;;;;;;;;;;;;;4880243;29;19927;-86
2022/08/24 01:25:49;;;;;;;;;;;;;;;;;;4881392;29;19920;-87
2022/08/24 01:28:16;;;;;;;;;;;;;;;;;;4881687;29;20398;-89
2022/08/24 01:30:42;;;;;;;;;;;;;;;;;;4883434;29;19930;-86
2022/08/24 01:33:09;;;;;;;;;;;;;;;;;;4884033;29;20303;-86
2022/08/24 01:35:36;;;;;;;;;;;;;;;;;;4883990;29;20349;-87
2022/08/24 01:38:04;;;;;;;;;;;;;;;;;;4884097;29;19972;-87
2022/08/24 01:40:35;;;;;;;;;;;;;;;;;;4884232;29;19943;-87
2022/08/24 01:43:02;;;;;;;;;;;;;;;;;;4884350;29;19943;-86
2022/08/24 01:45:29;;;;;;;;;;;;;;;;;;4884013;29;20014;-86
2022/08/24 01:47:54;;;;;;;;;;;;;;;;;;4867269;29;19920;-88
2022/08/24 01:50:20;;;;;;;;;;;;;;;;;;4884005;29;19967;-87
2022/08/24 01:52:46;;;;;;;;;;;;;;;;;;4884140;29;20296;-87
2022/08/24 01:55:15;;;;;;;;;;;;;;;;;;4867555;29;19927;-88
2022/08/24 01:57:41;;;;;;;;;;;;;;;;;;4884727;29;19927;-88
2022/08/24 02:00:08;;;;;;;;;;;;;;;;;;4885707;29;19920;-89
2022/08/24 02:02:33;;;;;;;;;;;;;;;;;;4885162;29;19986;-87
2022/08/24 02:05:00;;;;;;;;;;;;;;;;;;4884412;29;19959;-88
2022/08/24 02:07:26;;;;;;;;;;;;;;;;;;4884264;29;19920;-87
2022/08/24 02:09:51;;;;;;;;;;;;;;;;;;4884023;29;19920;-89
2022/08/24 02:12:17;;;;;;;;;;;;;;;;;;4884062;29;20395;-88
2022/08/24 02:14:43;;;;;;;;;;;;;;;;;;4867885;29;20360;-89
2022/08/24 02:17:08;;;;;;;;;;;;;;;;;;4868642;29;19927;-88
2022/08/24 02:19:34;;;;;;;;;;;;;;;;;;4884871;29;20370;-88
2022/08/24 02:22:00;;;;;;;;;;;;;;;;;;4883746;29;19924;-89
2022/08/24 02:24:26;;;;;;;;;;;;;;;;;;4883357;29;20344;-89
2022/08/24 02:26:52;;;;;;;;;;;;;;;;;;4866243;29;19915;-87
2022/08/24 02:29:17;;;;;;;;;;;;;;;;;;4888263;29;19924;-87
2022/08/24 02:31:43;;;;;;;;;;;;;;;;;;4884795;29;19923;-87
2022/08/24 02:34:08;;;;;;;;;;;;;;;;;;4901706;29;20394;-87
2022/08/24 02:36:34;;;;;;;;;;;;;;;;;;4901567;29;19920;-88
2022/08/24 02:38:59;;;;;;;;;;;;;;;;;;4884815;29;19922;-87
2022/08/24 02:41:25;;;;;;;;;;;;;;;;;;4884118;29;19919;-88
2022/08/24 02:43:51;;;;;;;;;;;;;;;;;;4901501;29;19919;-88
2022/08/24 02:46:25;;;;;;;;;;;;;;;;;;4901842;29;19980;-89
2022/08/24 02:48:51;;;;;;;;;;;;;;;;;;4901610;29;19919;-87
2022/08/24 02:51:25;;;;;;;;;;;;;;;;;;4884491;29;19919;-88
2022/08/24 02:53:50;;;;;;;;;;;;;;;;;;4884353;29;19919;-89
2022/08/24 02:56:16;;;;;;;;;;;;;;;;;;4885241;29;19984;-87
2022/08/24 02:58:45;;;;;;;;;;;;;;;;;;4901212;29;19984;-87
2022/08/24 03:01:11;;;;;;;;;;;;;;;;;;4900003;29;19920;-89
2022/08/24 03:03:36;;;;;;;;;;;;;;;;;;4884463;29;20372;-88
2022/08/24 03:06:02;;;;;;;;;;;;;;;;;;4901228;29;19919;-88
2022/08/24 03:08:27;;;;;;;;;;;;;;;;;;4902032;29;20288;-88
2022/08/24 03:10:53;;;;;;;;;;;;;;;;;;4911919;29;19924;-88
2022/08/24 03:13:18;;;;;;;;;;;;;;;;;;4919342;29;19975;-88
2022/08/24 03:15:45;;;;;;;;;;;;;;;;;;4895291;29;19947;-87
2022/08/24 03:18:11;;;;;;;;;;;;;;;;;;4915040;29;20352;-88
2022/08/24 03:20:37;;;;;;;;;;;;;;;;;;4894578;29;19920;-87
2022/08/24 03:23:03;;;;;;;;;;;;;;;;;;4885539;29;19926;-87
2022/08/24 03:25:28;;;;;;;;;;;;;;;;;;4884380;29;20030;-87
2022/08/24 03:27:54;;;;;;;;;;;;;;;;;;4883934;29;19920;-87
2022/08/24 03:30:20;;;;;;;;;;;;;;;;;;4900914;29;19923;-88
2022/08/24 03:32:45;;;;;;;;;;;;;;;;;;4900686;29;19920;-87
2022/08/24 03:35:11;;;;;;;;;;;;;;;;;;4884054;29;19919;-89
2022/08/24 03:37:37;;;;;;;;;;;;;;;;;;4884486;29;19975;-88
2022/08/24 03:40:04;;;;;;;;;;;;;;;;;;4884725;29;19924;-87
2022/08/24 03:42:29;;;;;;;;;;;;;;;;;;4905771;29;19926;-89
2022/08/24 03:44:55;;;;;;;;;;;;;;;;;;4886211;29;19920;-88
2022/08/24 03:47:21;;;;;;;;;;;;;;;;;;4884717;29;19924;-88
2022/08/24 03:49:47;;;;;;;;;;;;;;;;;;4901342;29;19975;-87
2022/08/24 03:52:12;;;;;;;;;;;;;;;;;;4903852;29;20018;-87
2022/08/24 03:54:37;;;;;;;;;;;;;;;;;;4886904;29;20383;-88
2022/08/24 03:57:03;;;;;;;;;;;;;;;;;;4901268;29;19948;-89
2022/08/24 03:59:28;;;;;;;;;;;;;;;;;;4900614;29;20340;-89
2022/08/24 04:01:56;;;;;;;;;;;;;;;;;;4883758;29;19920;-87
2022/08/24 04:04:21;;;;;;;;;;;;;;;;;;4902349;29;19919;-87
2022/08/24 04:06:47;;;;;;;;;;;;;;;;;;4901059;29;19976;-87
2022/08/24 04:09:13;;;;;;;;;;;;;;;;;;4883377;29;19954;-88
2022/08/24 04:11:38;;;;;;;;;;;;;;;;;;4883108;29;19915;-87
2022/08/24 04:14:04;;;;;;;;;;;;;;;;;;4899716;29;19919;-89
2022/08/24 04:16:32;;;;;;;;;;;;;;;;;;4899896;29;20282;-88
2022/08/24 04:18:58;;;;;;;;;;;;;;;;;;4899787;29;19934;-87
2022/08/24 04:21:24;;;;;;;;;;;;;;;;;;4883079;29;20287;-89
2022/08/24 04:23:53;;;;;;;;;;;;;;;;;;4882931;29;20295;-89
2022/08/24 04:26:20;;;;;;;;;;;;;;;;;;4899769;29;20376;-89
2022/08/24 04:28:45;;;;;;;;;;;;;;;;;;4899852;29;19928;-88
2022/08/24 04:31:11;;;;;;;;;;;;;;;;;;4882729;29;19926;-89
2022/08/24 04:33:37;;;;;;;;;;;;;;;;;;4899690;29;20018;-88
2022/08/24 04:36:05;;;;;;;;;;;;;;;;;;4899536;29;20299;-88
2022/08/24 04:38:30;;;;;;;;;;;;;;;;;;4899399;29;19919;-88
2022/08/24 04:43:24;;;;;;;;;;;;;;;;;;5074570;27;2321942;-90
2022/08/24 04:45:50;;;;;;;;;;;;;;;;;;5152940;27;20017;-90
2022/08/24 04:48:16;;;;;;;;;;;;;;;;;;5134531;27;19976;-89
2022/08/24 04:50:42;;;;;;;;;;;;;;;;;;5152980;27;19915;-91
2022/08/24 04:53:09;;;;;;;;;;;;;;;;;;5164281;22;19978;-90
2022/08/24 04:55:40;;;;;;;;;;;;;;;;;;5093563;28;19922;-91
2022/08/24 04:58:06;;;;;;;;;;;;;;;;;;5112113;28;19941;-90
2022/08/24 05:00:32;;;;;;;;;;;;;;;;;;5112033;28;20019;-91
2022/08/24 05:02:57;;;;;;;;;;;;;;;;;;5093068;28;19959;-92
2022/08/24 05:05:22;;;;;;;;;;;;;;;;;;5093173;28;19989;-91
2022/08/24 05:07:48;;;;;;;;;;;;;;;;;;5111438;28;19923;-91
2022/08/24 05:10:13;;;;;;;;;;;;;;;;;;5111299;28;19920;-90
2022/08/24 05:12:39;;;;;;;;;;;;;;;;;;5111284;28;19951;-90
2022/08/24 05:15:04;;;;;;;;;;;;;;;;;;5093022;28;19916;-89
2022/08/24 05:17:30;;;;;;;;;;;;;;;;;;5111142;28;20279;-90
2022/08/24 05:19:57;;;;;;;;;;;;;;;;;;5092890;28;20363;-89
2022/08/24 05:22:22;;;;;;;;;;;;;;;;;;5111112;28;19922;-91
2022/08/24 05:24:48;;;;;;;;;;;;;;;;;;5092811;28;19920;-91
2022/08/24 05:27:14;;;;;;;;;;;;;;;;;;5111023;28;19920;-92
2022/08/24 05:29:40;;;;;;;;;;;;;;;;;;5111007;28;19916;-89
2022/08/24 05:32:05;;;;;;;;;;;;;;;;;;5111022;28;20386;-90
2022/08/24 05:34:31;;;;;;;;;;;;;;;;;;5092523;28;19960;-90
2022/08/24 05:36:56;;;;;;;;;;;;;;;;;;5111175;28;19972;-91
2022/08/24 05:39:22;;;;;;;;;;;;;;;;;;5110673;28;20367;-89
2022/08/24 05:41:47;;;;;;;;;;;;;;;;;;5110670;28;19961;-89
2022/08/24 05:44:14;;;;;;;;;;;;;;;;;;5110640;28;19922;-89
2022/08/24 05:46:39;;;;;;;;;;;;;;;;;;5110585;28;20016;-89
2022/08/24 05:49:07;;;;;;;;;;;;;;;;;;5110527;28;19974;-90
2022/08/24 05:51:32;;;;;;;;;;;;;;;;;;5092502;28;19951;-90
2022/08/24 05:53:59;;;;;;;;;;;;;;;;;;5101373;28;20036;-90
2022/08/24 05:56:25;;;;;;;;;;;;;;;;;;5078635;28;19916;-89
2022/08/24 05:58:50;;;;;;;;;;;;;;;;;;5078527;28;19985;-88
2022/08/24 06:01:18;;;;;;;;;;;;;;;;;;5096669;28;19973;-88
2022/08/24 06:03:44;;;;;;;;;;;;;;;;;;5096613;28;19916;-88
2022/08/24 06:06:09;;;;;;;;;;;;;;;;;;5096642;28;19916;-89
2022/08/24 06:08:36;;;;;;;;;;;;;;;;;;5078492;28;20424;-89
2022/08/24 06:11:01;;;;;;;;;;;;;;;;;;5078413;28;20292;-90
2022/08/24 06:13:28;;;;;;;;;;;;;;;;;;5096387;28;19916;-91
2022/08/24 06:16:10;;;;;;;;;;;;;;;;;;5096436;28;20395;-90
2022/08/24 06:18:35;;;;;;;;;;;;;;;;;;5096383;28;20268;-90
2022/08/24 06:21:05;;;;;;;;;;;;;;;;;;5078116;28;19923;-90
2022/08/24 06:23:31;;;;;;;;;;;;;;;;;;5096268;28;19916;-91
2022/08/24 06:28:41;;;;;;;;;;;;;;;;;;5096601;28;19968;-89
2022/08/24 06:31:06;;;;;;;;;;;;;;;;;;5096546;28;19920;-90
2022/08/24 06:33:32;;;;;;;;;;;;;;;;;;5078221;28;19916;-91
2022/08/24 06:35:58;;;;;;;;;;;;;;;;;;5096082;28;19916;-89
2022/08/24 06:38:23;;;;;;;;;;;;;;;;;;5077743;28;20286;-93
2022/08/24 06:40:49;;;;;;;;;;;;;;;;;;5077877;28;19917;-91
2022/08/24 06:43:14;;;;;;;;;;;;;;;;;;5078051;28;19965;-92
2022/08/24 06:45:41;;;;;;;;;;;;;;;;;;5095514;28;19916;-91
2022/08/24 06:48:06;;;;;;;;;;;;;;;;;;5096030;28;19916;-90
2022/08/24 06:50:32;;;;;;;;;;;;;;;;;;5095924;28;19916;-91
2022/08/24 06:52:59;;;;;;;;;;;;;;;;;;5095823;28;20018;-91
2022/08/24 06:55:24;;;;;;;;;;;;;;;;;;5077435;28;19925;-89
2022/08/24 06:57:50;;;;;;;;;;;;;;;;;;5095312;28;20006;-91
2022/08/24 07:00:16;;;;;;;;;;;;;;;;;;5095000;28;20006;-89
2022/08/24 07:02:41;;;;;;;;;;;;;;;;;;5095334;28;19926;-92
2022/08/24 07:05:07;;;;;;;;;;;;;;;;;;5094520;28;19916;-90
2022/08/24 07:07:32;;;;;;;;;;;;;;;;;;5095378;28;19948;-91
2022/08/24 07:09:59;;;;;;;;;;;;;;;;;;5094172;28;19920;-91
2022/08/24 07:12:25;;;;;;;;;;;;;;;;;;5094064;28;19953;-89
2022/08/24 07:14:51;;;;;;;;;;;;;;;;;;5095441;28;19912;-89
2022/08/24 07:17:17;;;;;;;;;;;;;;;;;;5094170;28;19922;-90
2022/08/24 07:19:43;;;;;;;;;;;;;;;;;;5095354;28;19912;-91
2022/08/24 07:22:08;;;;;;;;;;;;;;;;;;5095094;28;19966;-90
2022/08/24 07:24:33;;;;;;;;;;;;;;;;;;5095347;28;19923;-91
2022/08/24 07:26:59;;;;;;;;;;;;;;;;;;5095389;28;20333;-90
2022/08/24 07:29:24;;;;;;;;;;;;;;;;;;5076745;28;19922;-89
2022/08/24 07:31:50;;;;;;;;;;;;;;;;;;5095117;28;20007;-90
2022/08/24 07:34:15;;;;;;;;;;;;;;;;;;5095256;28;19912;-90
2022/08/24 07:36:41;;;;;;;;;;;;;;;;;;5094938;28;20367;-90
2022/08/24 07:39:07;;;;;;;;;;;;;;;;;;5094889;28;19995;-91
2022/08/24 07:41:36;;;;;;;;;;;;;;;;;;5093529;28;19916;-91
2022/08/24 07:44:02;;;;;;;;;;;;;;;;;;5093577;28;19965;-91
2022/08/24 07:46:27;;;;;;;;;;;;;;;;;;5095151;28;19999;-91
2022/08/24 07:48:53;;;;;;;;;;;;;;;;;;5093575;28;19917;-90
2022/08/24 07:51:19;;;;;;;;;;;;;;;;;;5090707;28;19920;-91
2022/08/24 07:53:45;;;;;;;;;;;;;;;;;;5091544;28;19909;-90
2022/08/24 07:56:11;;;;;;;;;;;;;;;;;;5092486;28;19920;-92
2022/08/24 07:58:36;;;;;;;;;;;;;;;;;;5094705;28;19931;-91
2022/08/24 08:01:03;;;;;;;;;;;;;;;;;;5065228;28;19921;-90
2022/08/24 08:03:32;;;;;;;;;;;;;;;;;;5062535;28;20430;-91
2022/08/24 08:06:03;;;;;;;;;;;;;;;;;;5076811;28;19927;-92
2022/08/24 08:08:29;;;;;;;;;;;;;;;;;;5087892;28;20011;-91
2022/08/24 08:10:56;;;;;;;;;;;;;;;;;;5089482;28;19924;-90
2022/08/24 08:13:21;;;;;;;;;;;;;;;;;;5094565;28;20485;-91
2022/08/24 08:15:47;;;;;;;;;;;;;;;;;;5094234;28;19948;-90
2022/08/24 08:18:17;;;;;;;;;;;;;;;;;;5076064;28;20298;-91
2022/08/24 08:20:42;;;;;;;;;;;;;;;;;;5094193;28;20286;-91
2022/08/24 08:25:54;;;;;;;;;;;;;;;;;;5094205;28;19922;-92
2022/08/24 08:28:19;;;;;;;;;;;;;;;;;;5075939;28;19916;-91
2022/08/24 08:30:45;;;;;;;;;;;;;;;;;;5091940;28;19923;-91
2022/08/24 08:33:11;;;;;;;;;;;;;;;;;;5093869;28;19951;-91
2022/08/24 08:35:37;;;;;;;;;;;;;;;;;;5075913;28;20010;-93
2022/08/24 08:38:02;;;;;;;;;;;;;;;;;;5092228;28;20006;-89
2022/08/24 08:40:34;;;;;;;;;;;;;;;;;;5092310;28;19924;-91
2022/08/24 08:43:03;;;;;;;;;;;;;;;;;;5093997;28;19916;-91
2022/08/24 09:00:48;;;;;;;;;;;;;;;;;;5115057;22;19930;-90
2022/08/24 09:03:21;;;;;;;;;;;;;;;;;;5123283;28;19920;-93
2022/08/24 09:06:06;;;;;;;;;;;;;;;;;;5106208;28;20323;-89
2022/08/24 09:08:31;;;;;;;;;;;;;;;;;;5103833;28;19980;-92
2022/08/24 09:10:56;;;;;;;;;;;;;;;;;;5118105;28;19916;-90
2022/08/24 09:13:28;;;;;;;;;;;;;;;;;;5106482;28;19924;-90
2022/08/24 09:16:09;;;;;;;;;;;;;;;;;;5122683;28;19920;-91
2022/08/24 09:18:34;;;;;;;;;;;;;;;;;;5123579;28;19972;-91
2022/08/24 09:21:02;;;;;;;;;;;;;;;;;;5104147;28;19923;-92
2022/08/24 09:24:00;;;;;;;;;;;;;;;;;;5131031;28;19945;-90
2022/08/24 09:26:28;;;;;;;;;;;;;;;;;;5070012;28;19919;-90
2022/08/24 09:29:01;;;;;;;;;;;;;;;;;;5104267;28;20313;-91
2022/08/24 09:31:26;;;;;;;;;;;;;;;;;;5108838;28;19961;-91
2022/08/24 09:34:10;;;;;;;;;;;;;;;;;;5117676;28;19950;-91
2022/08/24 09:36:52;;;;;;;;;;;;;;;;;;5108411;22;20018;-91
2022/08/24 09:39:27;;;;;;;;;;;;;;;;;;5101129;28;20386;-91
2022/08/24 09:42:06;;;;;;;;;;;;;;;;;;5117681;28;19920;-90
2022/08/24 09:44:43;;;;;;;;;;;;;;;;;;5117592;28;19916;-91
2022/08/24 09:47:21;;;;;;;;;;;;;;;;;;5117605;28;19912;-91
2022/08/24 09:50:01;;;;;;;;;;;;;;;;;;5117339;28;19923;-92
2022/08/24 09:52:35;;;;;;;;;;;;;;;;;;5117533;28;19916;-91
2022/08/24 09:55:13;;;;;;;;;;;;;;;;;;5099116;28;19911;-92
2022/08/24 09:57:39;;;;;;;;;;;;;;;;;;5098951;28;19916;-91
2022/08/24 10:00:17;;;;;;;;;;;;;;;;;;5117311;28;19915;-91
2022/08/24 10:02:52;;;;;;;;;;;;;;;;;;5117096;28;20416;-92
2022/08/24 10:05:23;;;;;;;;;;;;;;;;;;5117617;28;20382;-87
2022/08/24 10:07:54;;;;;;;;;;;;;;;;;;5116812;28;20018;-90
2022/08/24 10:10:40;;;;;;;;;;;;;;;;;;5098523;28;19923;-90
2022/08/24 10:13:30;;;;;;;;;;;;;;;;;;5116760;28;19920;-88
2022/08/24 10:15:55;;;;;;;;;;;;;;;;;;5116014;28;19962;-90
2022/08/24 10:18:31;;;;;;;;;;;;;;;;;;5116617;28;19958;-89
2022/08/24 10:21:18;;;;;;;;;;;;;;;;;;5114827;28;19920;-91
2022/08/24 10:23:55;;;;;;;;;;;;;;;;;;5116772;28;19919;-90
2022/08/24 10:26:27;;;;;;;;;;;;;;;;;;5116253;28;20430;-89
2022/08/24 10:28:55;;;;;;;;;;;;;;;;;;5097823;28;19923;-91
2022/08/24 10:31:26;;;;;;;;;;;;;;;;;;5115971;28;19919;-90
2022/08/24 10:34:09;;;;;;;;;;;;;;;;;;5097721;28;19969;-90
2022/08/24 10:36:53;;;;;;;;;;;;;;;;;;5086069;28;19920;-90
2022/08/24 10:39:40;;;;;;;;;;;;;;;;;;5084770;28;19948;-89
2022/08/24 10:43:32;;;;;;;;;;;;;;;;;;5094900;28;19920;-88
2022/08/24 10:45:16;;;;;;;;;;;;;;;;;;5094881;28;20378;-89
2022/08/24 10:47:53;;;;;;;;;;;;;;;;;;5094949;28;20424;-91
2022/08/24 10:50:26;;;;;;;;;;;;;;;;;;5077120;28;20011;-89
2022/08/24 10:53:10;;;;;;;;;;;;;;;;;;5100540;28;20386;-88
2022/08/24 10:55:35;;;;;;;;;;;;;;;;;;5104862;28;19927;-90
2022/08/24 10:58:21;;;;;;;;;;;;;;;;;;5103093;28;19928;-90
2022/08/24 11:00:46;;;;;;;;;;;;;;;;;;5104637;28;19920;-90
2022/08/24 11:03:12;;;;;;;;;;;;;;;;;;5085703;28;19920;-90
2022/08/24 11:05:41;;;;;;;;;;;;;;;;;;5084771;28;20287;-90
2022/08/24 11:08:06;;;;;;;;;;;;;;;;;;5109166;28;19912;-90
2022/08/24 11:10:34;;;;;;;;;;;;;;;;;;5117067;28;19926;-89
2022/08/24 11:13:17;;;;;;;;;;;;;;;;;;5116848;28;19959;-89
2022/08/24 11:15:46;;;;;;;;;;;;;;;;;;5115986;28;19919;-91
2022/08/24 11:18:11;;;;;;;;;;;;;;;;;;5112630;28;20336;-90
2022/08/24 11:20:42;;;;;;;;;;;;;;;;;;5078865;28;19920;-89
2022/08/24 11:23:13;;;;;;;;;;;;;;;;;;5093984;28;20374;-90
2022/08/24 11:25:41;;;;;;;;;;;;;;;;;;5094315;28;20011;-90
2022/08/24 11:28:21;;;;;;;;;;;;;;;;;;5094468;28;20046;-90
2022/08/24 11:30:48;;;;;;;;;;;;;;;;;;5095096;28;19951;-91
2022/08/24 11:33:28;;;;;;;;;;;;;;;;;;5076714;28;19964;-90
2022/08/24 11:35:53;;;;;;;;;;;;;;;;;;5076551;28;19928;-90
2022/08/24 11:38:21;;;;;;;;;;;;;;;;;;5095032;28;20434;-91
2022/08/24 11:40:49;;;;;;;;;;;;;;;;;;5076880;28;19923;-90
2022/08/24 11:43:21;;;;;;;;;;;;;;;;;;5076820;28;19920;-91
2022/08/24 11:45:58;;;;;;;;;;;;;;;;;;5076702;28;19920;-90
2022/08/24 11:48:34;;;;;;;;;;;;;;;;;;5123100;28;20026;-91
2022/08/24 11:51:04;;;;;;;;;;;;;;;;;;5112366;28;19903;-92
2022/08/24 11:53:36;;;;;;;;;;;;;;;;;;5128601;28;19916;-90
2022/08/24 11:56:05;;;;;;;;;;;;;;;;;;5124611;28;19916;-91
2022/08/24 11:58:34;;;;;;;;;;;;;;;;;;5115783;28;19919;-89
2022/08/24 12:01:18;;;;;;;;;;;;;;;;;;5115043;28;19922;-90
2022/08/24 12:04:02;;;;;;;;;;;;;;;;;;5096699;28;19916;-91
2022/08/24 12:06:51;;;;;;;;;;;;;;;;;;5096629;28;19916;-90
2022/08/24 12:09:17;;;;;;;;;;;;;;;;;;5114933;28;19916;-89
2022/08/24 12:11:46;;;;;;;;;;;;;;;;;;5114920;28;19920;-90
2022/08/24 12:14:28;;;;;;;;;;;;;;;;;;5096496;28;20282;-91
2022/08/24 12:17:17;;;;;;;;;;;;;;;;;;5096522;28;20382;-89
2022/08/24 12:19:48;;;;;;;;;;;;;;;;;;5083260;28;19962;-89
2022/08/24 12:22:14;;;;;;;;;;;;;;;;;;5096374;28;19920;-90
2022/08/24 12:24:42;;;;;;;;;;;;;;;;;;5114819;28;20328;-91
2022/08/24 12:27:09;;;;;;;;;;;;;;;;;;5096485;28;19916;-92
2022/08/24 12:29:41;;;;;;;;;;;;;;;;;;5096287;28;19916;-90
2022/08/24 12:32:10;;;;;;;;;;;;;;;;;;5114738;28;20055;-90
2022/08/24 12:34:45;;;;;;;;;;;;;;;;;;5096022;28;19923;-91
2022/08/24 12:37:16;;;;;;;;;;;;;;;;;;5096114;28;19920;-90
2022/08/24 12:40:08;;;;;;;;;;;;;;;;;;5114338;28;19922;-90
2022/08/24 12:42:36;;;;;;;;;;;;;;;;;;5084880;28;20351;-90
2022/08/24 12:45:10;;;;;;;;;;;;;;;;;;5114565;28;19923;-91
2022/08/24 12:47:54;;;;;;;;;;;;;;;;;;5114342;28;19916;-91
2022/08/24 12:50:26;;;;;;;;;;;;;;;;;;5114263;28;19916;-91
2022/08/24 12:53:05;;;;;;;;;;;;;;;;;;5114270;28;19996;-90
2022/08/24 12:55:39;;;;;;;;;;;;;;;;;;5095925;28;19920;-91
2022/08/24 12:58:26;;;;;;;;;;;;;;;;;;5095902;28;19916;-89
2022/08/24 13:00:54;;;;;;;;;;;;;;;;;;5097263;28;19923;-89
2022/08/24 13:03:30;;;;;;;;;;;;;;;;;;5114868;28;19915;-92
2022/08/24 13:05:57;;;;;;;;;;;;;;;;;;5118343;28;20294;-90
2022/08/24 13:08:43;;;;;;;;;;;;;;;;;;5099714;28;19920;-92
2022/08/24 13:11:28;;;;;;;;;;;;;;;;;;5099912;28;20006;-90
2022/08/24 13:13:53;;;;;;;;;;;;;;;;;;5099834;28;19923;-90
2022/08/24 13:16:38;;;;;;;;;;;;;;;;;;5099657;28;19922;-90
2022/08/24 13:19:13;;;;;;;;;;;;;;;;;;5118006;28;19993;-90
2022/08/24 13:21:41;;;;;;;;;;;;;;;;;;5117876;28;20351;-90
2022/08/24 13:24:33;;;;;;;;;;;;;;;;;;5099646;28;19922;-91
2022/08/24 13:27:10;;;;;;;;;;;;;;;;;;5094656;28;19915;-89
2022/08/24 13:29:37;;;;;;;;;;;;;;;;;;5117756;28;19915;-91
2022/08/24 13:32:03;;;;;;;;;;;;;;;;;;5117803;28;19919;-92
2022/08/24 13:34:43;;;;;;;;;;;;;;;;;;5117733;28;20006;-91
2022/08/24 13:37:29;;;;;;;;;;;;;;;;;;5117739;28;19927;-90
2022/08/24 13:40:01;;;;;;;;;;;;;;;;;;5117157;28;20390;-89
2022/08/24 13:42:36;;;;;;;;;;;;;;;;;;5099387;28;19966;-90
2022/08/24 13:45:15;;;;;;;;;;;;;;;;;;5117780;28;20287;-92
2022/08/24 13:47:50;;;;;;;;;;;;;;;;;;5099342;28;19916;-92
2022/08/24 13:50:36;;;;;;;;;;;;;;;;;;5117675;28;19922;-89
2022/08/24 13:53:14;;;;;;;;;;;;;;;;;;5117583;28;19923;-90
2022/08/24 13:55:48;;;;;;;;;;;;;;;;;;5099268;28;19916;-90
2022/08/24 13:58:18;;;;;;;;;;;;;;;;;;5117279;28;20006;-91
2022/08/24 14:00:56;;;;;;;;;;;;;;;;;;5117370;28;19969;-90
2022/08/24 14:03:27;;;;;;;;;;;;;;;;;;5117093;28;19923;-90
2022/08/24 14:06:07;;;;;;;;;;;;;;;;;;5117167;28;19960;-90
2022/08/24 14:08:33;;;;;;;;;;;;;;;;;;5098706;28;19951;-90
2022/08/24 14:11:10;;;;;;;;;;;;;;;;;;5098675;28;19952;-89
2022/08/24 14:13:54;;;;;;;;;;;;;;;;;;5098684;28;19916;-90
2022/08/24 14:19:10;;;;;;;;;;;;;;;;;;5117187;28;19927;-89
2022/08/24 14:21:45;;;;;;;;;;;;;;;;;;5098923;28;19960;-89
2022/08/24 14:24:20;;;;;;;;;;;;;;;;;;5116911;28;20008;-90
2022/08/24 14:26:45;;;;;;;;;;;;;;;;;;5116861;28;19916;-90
2022/08/24 14:29:14;;;;;;;;;;;;;;;;;;5098061;28;19922;-90
2022/08/24 14:31:52;;;;;;;;;;;;;;;;;;5116684;28;19916;-89
2022/08/24 14:34:36;;;;;;;;;;;;;;;;;;5116594;28;19923;-89
2022/08/24 14:37:05;;;;;;;;;;;;;;;;;;5097961;28;19920;-90
2022/08/24 14:39:46;;;;;;;;;;;;;;;;;;5097691;28;19922;-89
2022/08/24 14:42:14;;;;;;;;;;;;;;;;;;5116214;28;19916;-89
2022/08/24 14:44:40;;;;;;;;;;;;;;;;;;5097843;28;20010;-91
2022/08/24 14:47:23;;;;;;;;;;;;;;;;;;5116313;28;19962;-89
2022/08/24 14:49:52;;;;;;;;;;;;;;;;;;5116232;28;19923;-90
2022/08/24 14:52:47;;;;;;;;;;;;;;;;;;5116125;28;19920;-89
2022/08/24 14:55:28;;;;;;;;;;;;;;;;;;5094071;28;20398;-90
2022/08/24 14:58:09;;;;;;;;;;;;;;;;;;5097784;28;19915;-90
2022/08/24 15:00:53;;;;;;;;;;;;;;;;;;5098025;28;19937;-89
2022/08/24 15:03:37;;;;;;;;;;;;;;;;;;5097628;28;19916;-90
2022/08/24 15:06:21;;;;;;;;;;;;;;;;;;5118442;28;19916;-91
2022/08/24 15:08:47;;;;;;;;;;;;;;;;;;5098016;28;19916;-90
2022/08/24 15:11:14;;;;;;;;;;;;;;;;;;5116136;28;20381;-88
2022/08/24 15:13:46;;;;;;;;;;;;;;;;;;5099880;28;19916;-89
2022/08/24 15:16:15;;;;;;;;;;;;;;;;;;5087689;28;19919;-90
2022/08/24 15:19:00;;;;;;;;;;;;;;;;;;5101076;28;19970;-88
2022/08/24 15:21:29;;;;;;;;;;;;;;;;;;5078667;28;20373;-89
2022/08/24 15:24:14;;;;;;;;;;;;;;;;;;5105372;28;19915;-90
2022/08/24 15:26:48;;;;;;;;;;;;;;;;;;5095667;28;19923;-89
2022/08/24 15:29:16;;;;;;;;;;;;;;;;;;5109545;28;19958;-89
2022/08/24 15:31:41;;;;;;;;;;;;;;;;;;5084685;28;19938;-89
2022/08/24 15:34:07;;;;;;;;;;;;;;;;;;5079154;28;20394;-89
2022/08/24 15:36:33;;;;;;;;;;;;;;;;;;5099689;28;19949;-88
2022/08/24 15:39:03;;;;;;;;;;;;;;;;;;5087913;28;20371;-88
2022/08/24 15:41:33;;;;;;;;;;;;;;;;;;5096846;28;19912;-90
2022/08/24 15:44:03;;;;;;;;;;;;;;;;;;5094960;28;19970;-89
2022/08/24 15:46:34;;;;;;;;;;;;;;;;;;5095153;28;20006;-89
2022/08/24 15:49:19;;;;;;;;;;;;;;;;;;5094805;28;19985;-89
2022/08/24 15:51:59;;;;;;;;;;;;;;;;;;5094665;28;19916;-89
2022/08/24 15:54:26;;;;;;;;;;;;;;;;;;5077304;28;19922;-90
2022/08/24 15:56:55;;;;;;;;;;;;;;;;;;5116859;28;19910;-90
2022/08/24 15:59:38;;;;;;;;;;;;;;;;;;5107802;28;19907;-89
2022/08/24 16:02:27;;;;;;;;;;;;;;;;;;5125660;28;19967;-89
2022/08/24 16:05:08;;;;;;;;;;;;;;;;;;5111061;28;19916;-88
2022/08/24 16:07:53;;;;;;;;;;;;;;;;;;5111301;28;19961;-88
2022/08/24 16:10:27;;;;;;;;;;;;;;;;;;5107747;28;20010;-89
2022/08/24 16:12:53;;;;;;;;;;;;;;;;;;5097261;28;19919;-88
2022/08/24 16:15:19;;;;;;;;;;;;;;;;;;5115018;28;19919;-88
2022/08/24 16:17:44;;;;;;;;;;;;;;;;;;5097963;28;19923;-89
2022/08/24 16:20:12;;;;;;;;;;;;;;;;;;5095211;28;19962;-89
2022/08/24 16:22:39;;;;;;;;;;;;;;;;;;5096261;28;20323;-89
2022/08/24 16:25:21;;;;;;;;;;;;;;;;;;5087160;28;19923;-90
2022/08/24 16:27:58;;;;;;;;;;;;;;;;;;5094815;28;19920;-89
2022/08/24 16:30:42;;;;;;;;;;;;;;;;;;5097741;28;19931;-89
2022/08/24 16:33:09;;;;;;;;;;;;;;;;;;5099773;28;19922;-90
2022/08/24 16:35:35;;;;;;;;;;;;;;;;;;5077486;28;19923;-89
2022/08/24 16:38:00;;;;;;;;;;;;;;;;;;5105919;28;20383;-88
2022/08/24 16:40:26;;;;;;;;;;;;;;;;;;5105854;28;20026;-88
2022/08/24 16:42:55;;;;;;;;;;;;;;;;;;5101533;28;19916;-88
2022/08/24 16:45:21;;;;;;;;;;;;;;;;;;5113106;28;19923;-89
2022/08/24 16:47:48;;;;;;;;;;;;;;;;;;5095862;28;19912;-90
2022/08/24 16:50:15;;;;;;;;;;;;;;;;;;5098114;28;20703;-90
2022/08/24 16:52:40;;;;;;;;;;;;;;;;;;5080383;28;19918;-89
2022/08/24 16:55:06;;;;;;;;;;;;;;;;;;5110907;28;19991;-89
2022/08/24 16:57:36;;;;;;;;;;;;;;;;;;5099324;28;19927;-88
2022/08/24 17:00:05;;;;;;;;;;;;;;;;;;5081486;28;19912;-88
2022/08/24 17:02:31;;;;;;;;;;;;;;;;;;5086680;28;19923;-88
2022/08/24 17:04:56;;;;;;;;;;;;;;;;;;5094364;28;19916;-88
2022/08/24 17:07:24;;;;;;;;;;;;;;;;;;5090608;28;19916;-90
2022/08/24 17:09:49;;;;;;;;;;;;;;;;;;5114456;28;19916;-90
2022/08/24 17:12:15;;;;;;;;;;;;;;;;;;5112902;28;19916;-88
2022/08/24 17:14:41;;;;;;;;;;;;;;;;;;5107542;28;19915;-89
2022/08/24 17:17:07;;;;;;;;;;;;;;;;;;5095808;28;19916;-89
2022/08/24 17:19:35;;;;;;;;;;;;;;;;;;5112944;28;19920;-88
2022/08/24 17:22:00;;;;;;;;;;;;;;;;;;5095961;28;20290;-89
2022/08/24 17:24:28;;;;;;;;;;;;;;;;;;5114204;28;19923;-89
2022/08/24 17:26:54;;;;;;;;;;;;;;;;;;5111889;28;20025;-91
2022/08/24 17:29:19;;;;;;;;;;;;;;;;;;5075771;28;19963;-90
2022/08/24 17:31:45;;;;;;;;;;;;;;;;;;5093698;28;19916;-88
2022/08/24 17:34:10;;;;;;;;;;;;;;;;;;5100082;28;19923;-88